Time;durP1;ratioP1;P1;durP2;ratioP2;P2;SDS_P1;SDS_P2;PMS_P1;PMS_P2;Temp;Humidity;BMP_temperature;BMP_pressure;BME280_temperature;BME280_humidity;BME280_pressure;Samples;Min_cycle;Max_cycle;Signal;HPM_P1;HPM_P2
2021/07/10 00:01:05;;;;;;;19.63;14.13;;;;;;;15.10;100.00;101631.69;6276502;28;20056;-77
2021/07/10 00:04:06;;;;;;;21.63;12.45;;;;;;;15.06;100.00;101630.16;6275871;28;20055;-78
2021/07/10 00:07:08;;;;;;;24.80;13.75;;;;;;;15.03;100.00;101629.47;6276532;28;20087;-77
2021/07/10 00:10:12;;;;;;;32.95;14.77;;;;;;;14.96;100.00;101629.84;6275265;28;20049;-78
2021/07/10 00:13:14;;;;;;;20.63;13.05;;;;;;;14.94;100.00;101638.81;6275333;28;20045;-77
2021/07/10 00:16:16;;;;;;;20.10;12.82;;;;;;;14.90;100.00;101645.25;6274790;28;20045;-75
2021/07/10 00:19:17;;;;;;;20.67;14.05;;;;;;;14.89;100.00;101643.50;6273391;28;20060;-75
2021/07/10 00:22:18;;;;;;;22.13;13.93;;;;;;;14.87;100.00;101645.41;6273577;28;20052;-77
2021/07/10 00:25:20;;;;;;;20.83;13.38;;;;;;;14.86;100.00;101641.91;6273271;28;20049;-75
2021/07/10 00:28:23;;;;;;;20.52;13.45;;;;;;;14.86;100.00;101626.03;6268372;28;20516;-77
2021/07/10 00:31:24;;;;;;;21.63;12.85;;;;;;;14.82;100.00;101621.00;6252364;28;20131;-77
2021/07/10 00:34:26;;;;;;;24.58;14.20;;;;;;;14.78;100.00;101624.75;6270000;28;20055;-75
2021/07/10 00:37:27;;;;;;;20.75;14.32;;;;;;;14.73;100.00;101617.09;6273160;28;20045;-77
2021/07/10 00:40:28;;;;;;;20.30;14.05;;;;;;;14.73;100.00;101609.16;6273483;28;20045;-75
2021/07/10 00:43:31;;;;;;;20.88;12.25;;;;;;;14.81;100.00;101603.41;6273007;28;20516;-75
2021/07/10 00:46:32;;;;;;;27.58;14.75;;;;;;;14.75;100.00;101596.66;6272978;28;20051;-76
2021/07/10 00:49:34;;;;;;;19.73;13.43;;;;;;;14.69;100.00;101589.94;6273112;28;20057;-77
2021/07/10 00:52:35;;;;;;;19.13;13.70;;;;;;;14.70;100.00;101588.13;6272918;28;20060;-75
2021/07/10 00:55:37;;;;;;;19.67;12.93;;;;;;;14.73;100.00;101593.25;6272820;28;20049;-75
2021/07/10 00:58:40;;;;;;;19.25;13.50;;;;;;;14.68;100.00;101590.03;6272557;28;20060;-75
2021/07/10 01:01:43;;;;;;;19.98;13.32;;;;;;;14.69;100.00;101592.59;6271824;28;20412;-76
2021/07/10 01:04:44;;;;;;;22.77;14.25;;;;;;;14.67;100.00;101589.19;6272326;28;20055;-75
2021/07/10 01:07:46;;;;;;;19.15;14.15;;;;;;;14.60;100.00;101601.03;6272707;28;20048;-78
2021/07/10 01:10:48;;;;;;;23.52;13.98;;;;;;;14.62;100.00;101598.28;6272535;28;20055;-75
2021/07/10 01:13:50;;;;;;;25.75;15.38;;;;;;;14.55;100.00;101595.16;6272381;28;20458;-76
2021/07/10 01:16:52;;;;;;;20.58;13.25;;;;;;;14.55;100.00;101595.16;6272198;28;20060;-75
2021/07/10 01:19:58;;;;;;;21.20;14.60;;;;;;;14.50;100.00;101591.94;6272232;28;20423;-76
2021/07/10 01:23:01;;;;;;;24.30;14.68;;;;;;;14.52;100.00;101590.03;6272427;28;20049;-75
2021/07/10 01:26:02;;;;;;;22.25;15.05;;;;;;;14.53;100.00;101594.38;6271820;28;20053;-76
2021/07/10 01:29:03;;;;;;;21.98;14.00;;;;;;;14.47;100.00;101598.19;6272066;28;20053;-75
2021/07/10 01:32:06;;;;;;;22.58;14.75;;;;;;;14.42;100.00;101599.41;6271956;28;20056;-74
2021/07/10 01:35:10;;;;;;;19.77;13.30;;;;;;;14.40;100.00;101601.28;6271851;28;20511;-75
2021/07/10 01:38:14;;;;;;;20.08;13.63;;;;;;;14.38;100.00;101597.84;6271875;28;20049;-75
2021/07/10 01:41:16;;;;;;;20.40;14.27;;;;;;;14.37;100.00;101591.72;6272151;28;20053;-75
2021/07/10 01:44:17;;;;;;;23.70;15.32;;;;;;;14.41;100.00;101593.25;6271840;28;20057;-75
2021/07/10 01:47:19;;;;;;;19.70;14.45;;;;;;;14.42;100.00;101589.66;6271854;28;20052;-75
2021/07/10 01:50:21;;;;;;;26.30;15.20;;;;;;;14.35;100.00;101584.78;6271554;28;20056;-75
2021/07/10 01:53:23;;;;;;;26.95;16.63;;;;;;;14.39;100.00;101583.69;6271868;28;20060;-75
2021/07/10 01:56:25;;;;;;;23.17;14.25;;;;;;;14.31;100.00;101584.13;6271326;28;20044;-75
2021/07/10 01:59:26;;;;;;;23.50;15.07;;;;;;;14.21;100.00;101583.78;6271690;28;20067;-76
2021/07/10 02:02:33;;;;;;;24.73;15.25;;;;;;;14.20;100.00;101587.34;6271540;28;20067;-75
2021/07/10 02:05:34;;;;;;;24.92;16.70;;;;;;;14.17;100.00;101590.19;6270843;28;20056;-76
2021/07/10 02:08:37;;;;;;;22.75;15.05;;;;;;;14.23;100.00;101591.63;6271456;28;20053;-74
2021/07/10 02:11:38;;;;;;;28.20;16.40;;;;;;;14.31;100.00;101589.44;6273311;28;20048;-76
2021/07/10 02:14:40;;;;;;;23.73;16.17;;;;;;;14.35;100.00;101587.44;6276588;28;20518;-75
2021/07/10 02:17:44;;;;;;;24.10;16.23;;;;;;;14.41;100.00;101584.47;6276631;28;20431;-75
2021/07/10 02:20:45;;;;;;;21.52;15.13;;;;;;;14.49;100.00;101584.06;6276488;28;20485;-75
2021/07/10 02:23:50;;;;;;;25.40;15.77;;;;;;;14.33;100.00;101592.81;6276486;28;20057;-75
2021/07/10 02:26:51;;;;;;;22.35;15.20;;;;;;;14.35;100.00;101587.44;6276217;28;20452;-75
2021/07/10 02:29:53;;;;;;;24.42;15.27;;;;;;;14.38;100.00;101579.34;6276015;28;20060;-75
2021/07/10 02:32:55;;;;;;;27.33;16.60;;;;;;;14.32;100.00;101575.25;6276573;28;20052;-75
2021/07/10 02:35:57;;;;;;;17.83;13.48;;;;;;;14.34;100.00;101575.16;6275834;28;20057;-75
2021/07/10 02:38:59;;;;;;;22.70;15.70;;;;;;;14.19;100.00;101576.88;6276150;28;20052;-75
2021/07/10 02:42:01;;;;;;;25.83;15.10;;;;;;;14.18;100.00;101576.03;6276287;28;20044;-75
2021/07/10 02:45:03;;;;;;;32.90;16.73;;;;;;;14.21;100.00;101564.41;6275712;28;20053;-75
2021/07/10 02:48:05;;;;;;;25.38;16.02;;;;;;;14.22;100.00;101563.50;6275948;28;20048;-75
2021/07/10 02:51:06;;;;;;;28.35;17.02;;;;;;;14.20;100.00;101557.44;6275830;28;20059;-75
2021/07/10 02:54:10;;;;;;;28.58;16.48;;;;;;;14.20;100.00;101552.13;6275850;28;20060;-75
2021/07/10 02:57:11;;;;;;;28.58;15.88;;;;;;;14.15;100.00;101540.97;6275434;28;20048;-75
2021/07/10 03:00:17;;;;;;;27.63;15.70;;;;;;;14.14;100.00;101547.19;6275595;28;20055;-75
2021/07/10 03:03:18;;;;;;;21.27;14.82;;;;;;;14.08;100.00;101556.34;6275568;28;20587;-76
2021/07/10 03:06:20;;;;;;;24.92;15.52;;;;;;;14.00;100.00;101549.75;6275534;28;20056;-75
2021/07/10 03:09:22;;;;;;;26.23;14.65;;;;;;;14.00;100.00;101549.75;6275048;28;20049;-75
2021/07/10 03:12:24;;;;;;;26.35;15.48;;;;;;;14.00;100.00;101544.47;6275600;28;20052;-75
2021/07/10 03:15:26;;;;;;;22.85;14.75;;;;;;;14.01;100.00;101547.03;6275197;28;20055;-75
2021/07/10 03:18:27;;;;;;;28.67;15.40;;;;;;;13.98;100.00;101555.09;6274969;28;20081;-75
2021/07/10 03:21:29;;;;;;;24.02;15.32;;;;;;;13.92;100.00;101556.31;6275231;28;20056;-76
2021/07/10 03:24:31;;;;;;;27.60;16.80;;;;;;;13.85;100.00;101552.31;6274024;28;20056;-75
2021/07/10 03:27:33;;;;;;;24.10;16.55;;;;;;;13.89;100.00;101555.59;6275027;28;20072;-75
2021/07/10 03:30:34;;;;;;;25.92;17.30;;;;;;;13.89;100.00;101553.81;6274808;28;20515;-75
2021/07/10 03:33:37;;;;;;;25.65;17.60;;;;;;;13.83;100.00;101545.38;6274920;28;20056;-75
2021/07/10 03:36:38;;;;;;;29.67;17.20;;;;;;;13.79;100.00;101547.34;6274538;28;20104;-75
2021/07/10 03:39:41;;;;;;;28.85;16.70;;;;;;;13.78;100.00;101548.28;6274931;28;20048;-75
2021/07/10 03:42:42;;;;;;;25.10;16.70;;;;;;;13.76;100.00;101547.47;6274652;28;20513;-77
2021/07/10 03:45:44;;;;;;;30.52;17.38;;;;;;;13.73;100.00;101545.03;6274810;28;20060;-76
2021/07/10 03:48:45;;;;;;;24.30;15.40;;;;;;;13.84;100.00;101547.09;6274531;28;20048;-75
2021/07/10 03:51:46;;;;;;;25.35;16.60;;;;;;;13.74;100.00;101554.66;6274272;28;20056;-75
2021/07/10 03:54:49;;;;;;;32.33;17.13;;;;;;;13.66;100.00;101541.84;6274351;28;20044;-75
2021/07/10 03:57:51;;;;;;;27.30;17.80;;;;;;;13.63;100.00;101538.53;6274228;28;20041;-75
2021/07/10 04:00:52;;;;;;;28.02;17.58;;;;;;;13.71;100.00;101533.69;6274204;28;20056;-77
2021/07/10 04:03:54;;;;;;;27.42;16.80;;;;;;;13.71;100.00;101542.44;6274088;28;20052;-77
2021/07/10 04:06:56;;;;;;;31.02;18.58;;;;;;;13.73;100.00;101545.03;6274097;28;20492;-76
2021/07/10 04:09:59;;;;;;;30.75;17.17;;;;;;;13.75;100.00;101544.94;6257289;28;20054;-77
2021/07/10 04:13:00;;;;;;;26.00;15.38;;;;;;;13.78;100.00;101539.50;6259609;28;20045;-76
2021/07/10 04:16:02;;;;;;;26.50;16.02;;;;;;;13.75;100.00;101537.88;6255053;28;20045;-74
2021/07/10 04:19:03;;;;;;;26.27;16.40;;;;;;;13.78;100.00;101526.28;6266962;28;20053;-74
2021/07/10 04:22:05;;;;;;;26.85;15.27;;;;;;;13.74;100.00;101541.44;6266589;28;20045;-75
2021/07/10 04:25:10;;;;;;;27.55;16.33;;;;;;;13.78;100.00;101536.84;6248609;28;20053;-75
2021/07/10 04:28:12;;;;;;;28.38;17.20;;;;;;;13.77;100.00;101530.72;6251337;28;20050;-76
2021/07/10 04:31:13;;;;;;;31.48;18.25;;;;;;;13.79;100.00;101536.75;6260904;28;20512;-74
2021/07/10 04:34:14;;;;;;;29.63;17.42;;;;;;;13.80;100.00;101543.75;6259086;28;20048;-76
2021/07/10 04:37:16;;;;;;;24.80;16.67;;;;;;;13.85;100.00;101546.13;6260227;28;20043;-76
2021/07/10 04:40:19;;;;;;;28.85;17.75;;;;;;;13.82;100.00;101547.19;6268321;28;20504;-75
2021/07/10 04:43:20;;;;;;;34.70;18.67;;;;;;;13.87;100.00;101546.94;6264973;28;20045;-75
2021/07/10 04:46:22;;;;;;;30.98;18.33;;;;;;;13.87;100.00;101542.50;6248378;28;20056;-76
2021/07/10 04:49:23;;;;;;;34.08;19.00;;;;;;;13.90;100.00;101544.13;6248257;28;20045;-76
2021/07/10 04:52:25;;;;;;;30.30;17.27;;;;;;;13.98;100.00;101541.91;6248146;28;20398;-76
2021/07/10 04:55:27;;;;;;;26.42;16.92;;;;;;;14.07;100.00;101537.91;6247916;28;20049;-76
2021/07/10 04:58:29;;;;;;;26.95;17.70;;;;;;;14.23;100.00;101536.13;6247740;28;20064;-75
2021/07/10 05:01:30;;;;;;;29.55;18.85;;;;;;;14.25;100.00;101533.38;6248018;28;20060;-73
2021/07/10 05:04:32;;;;;;;31.52;16.35;;;;;;;14.26;100.00;101529.78;6248101;28;20508;-74
2021/07/10 05:07:34;;;;;;;28.90;17.80;;;;;;;14.30;100.00;101524.25;6247724;28;20046;-75
2021/07/10 05:10:37;;;;;;;26.08;17.02;;;;;;;14.34;100.00;101524.94;6247490;28;20049;-74
2021/07/10 05:13:38;;;;;;;31.90;17.98;;;;;;;14.31;100.00;101530.41;6247811;28;20049;-75
2021/07/10 05:16:40;;;;;;;28.35;18.90;;;;;;;14.34;100.00;101536.34;6247331;28;20076;-73
2021/07/10 05:19:41;;;;;;;26.92;16.85;;;;;;;14.48;100.00;101540.88;6247399;28;20053;-74
2021/07/10 05:22:43;;;;;;;28.33;16.77;;;;;;;14.47;100.00;101544.44;6247334;28;20049;-76
2021/07/10 05:25:46;;;;;;;30.30;17.80;;;;;;;14.54;100.00;101537.06;6247088;28;20408;-72
2021/07/10 05:28:47;;;;;;;25.77;17.52;;;;;;;14.42;100.00;101543.84;6247153;28;20052;-76
2021/07/10 05:31:49;;;;;;;26.15;17.92;;;;;;;14.42;100.00;101541.22;6247154;28;20049;-74
2021/07/10 05:34:50;;;;;;;26.23;17.73;;;;;;;14.46;100.00;101535.66;6247379;28;20057;-75
2021/07/10 05:37:51;;;;;;;25.60;17.08;;;;;;;14.54;100.00;101539.72;6247075;28;20049;-76
2021/07/10 05:40:54;;;;;;;27.13;17.63;;;;;;;14.59;100.00;101535.84;6250566;28;20049;-75
2021/07/10 05:43:55;;;;;;;26.77;18.02;;;;;;;14.63;100.00;101534.75;6257394;28;20129;-76
2021/07/10 05:46:57;;;;;;;28.15;17.40;;;;;;;14.70;100.00;101536.06;6257690;28;20520;-75
2021/07/10 05:49:58;;;;;;;28.73;17.35;;;;;;;14.77;100.00;101531.28;6258217;28;20057;-74
2021/07/10 05:52:59;;;;;;;26.30;16.30;;;;;;;14.79;100.00;101526.75;6257627;28;20056;-76
2021/07/10 05:56:02;;;;;;;28.10;16.73;;;;;;;14.80;100.00;101528.44;6257874;28;20412;-75
2021/07/10 05:59:04;;;;;;;26.27;16.83;;;;;;;14.81;100.00;101534.63;6256811;28;20052;-76
2021/07/10 06:02:07;;;;;;;28.48;17.48;;;;;;;14.80;100.00;101540.81;6261450;28;20057;-75
2021/07/10 06:05:09;;;;;;;32.70;18.35;;;;;;;14.88;100.00;101542.09;6259824;28;20121;-76
2021/07/10 06:08:11;;;;;;;28.30;17.35;;;;;;;14.92;100.00;101542.78;6247545;28;20049;-77
2021/07/10 06:11:14;;;;;;;30.30;17.73;;;;;;;15.04;100.00;101538.56;6246711;28;20054;-76
2021/07/10 06:14:15;;;;;;;34.15;17.85;;;;;;;15.04;100.00;101544.69;6246776;28;20453;-76
2021/07/10 06:17:16;;;;;;;28.05;18.55;;;;;;;15.04;100.00;101552.63;6246343;28;20058;-76
2021/07/10 06:20:21;;;;;;;26.52;17.83;;;;;;;15.02;100.00;101551.88;6246720;28;20049;-76
2021/07/10 06:23:23;;;;;;;26.80;17.60;;;;;;;15.00;100.00;101553.75;6246665;28;20129;-76
2021/07/10 06:26:25;;;;;;;32.63;18.35;;;;;;;15.04;100.00;101554.44;6246337;28;20057;-74
2021/07/10 06:29:27;;;;;;;29.48;17.38;;;;;;;15.15;100.00;101549.34;6246517;28;20056;-75
2021/07/10 06:32:28;;;;;;;27.10;16.75;;;;;;;15.18;100.00;101555.31;6246315;28;20049;-77
2021/07/10 06:35:30;;;;;;;32.90;17.38;;;;;;;15.28;100.00;101555.63;6246751;28;20049;-75
2021/07/10 06:38:31;;;;;;;30.80;17.73;;;;;;;15.47;100.00;101553.56;6246101;28;20046;-75
2021/07/10 06:41:36;;;;;;;24.42;15.63;;;;;;;15.50;100.00;101547.22;6246543;28;20049;-74
2021/07/10 06:44:38;;;;;;;22.10;14.95;;;;;;;15.39;100.00;101554.97;6246476;28;20045;-75
2021/07/10 06:47:40;;;;;;;20.40;14.30;;;;;;;15.39;100.00;101555.81;6246264;28;20045;-75
2021/07/10 06:50:41;;;;;;;21.80;13.38;;;;;;;15.44;100.00;101564.34;6259989;28;20044;-76
2021/07/10 06:53:43;;;;;;;17.15;11.38;;;;;;;15.47;99.36;101555.34;6262473;28;20050;-76
2021/07/10 06:56:45;;;;;;;16.33;11.82;;;;;;;15.51;99.28;101561.31;6265885;28;20064;-77
2021/07/10 06:59:48;;;;;;;20.23;13.45;;;;;;;15.65;99.33;101562.19;6274476;28;20045;-78
2021/07/10 07:02:49;;;;;;;25.02;14.75;;;;;;;15.63;99.64;101564.06;6275493;28;20049;-75
2021/07/10 07:05:50;;;;;;;21.17;14.70;;;;;;;15.80;99.69;101565.69;6273909;28;20073;-75
2021/07/10 07:08:51;;;;;;;22.33;13.32;;;;;;;15.87;100.00;101558.22;6275263;28;20431;-77
2021/07/10 07:11:54;;;;;;;23.25;14.38;;;;;;;15.86;100.00;101559.19;6274253;28;20056;-76
2021/07/10 07:14:56;;;;;;;22.05;14.73;;;;;;;15.92;100.00;101558.78;6273980;28;20049;-76
2021/07/10 07:17:57;;;;;;;22.80;14.48;;;;;;;15.89;100.00;101557.16;6262800;28;20056;-77
2021/07/10 07:20:58;;;;;;;24.00;14.98;;;;;;;15.91;100.00;101562.41;6275003;28;20056;-76
2021/07/10 07:24:00;;;;;;;24.55;16.23;;;;;;;15.94;100.00;101557.75;6275067;28;20053;-76
2021/07/10 07:27:03;;;;;;;25.75;16.42;;;;;;;15.94;100.00;101554.22;6274931;28;20071;-77
2021/07/10 07:30:05;;;;;;;22.80;15.25;;;;;;;16.00;100.00;101547.72;6274884;28;20044;-76
2021/07/10 07:33:07;;;;;;;26.77;18.27;;;;;;;16.02;100.00;101545.81;6274753;28;20049;-76
2021/07/10 07:36:09;;;;;;;27.02;16.23;;;;;;;16.06;100.00;101540.19;6274259;28;20515;-76
2021/07/10 07:39:10;;;;;;;26.15;15.50;;;;;;;16.19;100.00;101546.44;6268512;28;20626;-76
2021/07/10 07:42:13;;;;;;;30.38;16.45;;;;;;;16.33;100.00;101539.38;6274712;28;20055;-76
2021/07/10 07:45:17;;;;;;;23.77;15.38;;;;;;;16.34;100.00;101543.72;6274395;28;20048;-76
2021/07/10 07:48:18;;;;;;;25.13;17.50;;;;;;;16.37;98.38;101535.59;6274255;28;20403;-76
2021/07/10 07:51:21;;;;;;;24.08;16.02;;;;;;;16.37;99.94;101530.28;6274763;28;20045;-76
2021/07/10 07:54:25;;;;;;;28.35;16.98;;;;;;;16.67;99.54;101532.72;6274430;28;20424;-76
2021/07/10 07:57:27;;;;;;;28.48;16.25;;;;;;;16.61;99.00;101522.50;6274092;28;20071;-75
2021/07/10 08:00:29;;;;;;;24.13;15.30;;;;;;;16.55;99.68;101515.81;6274016;28;20053;-75
2021/07/10 08:03:30;;;;;;;25.00;14.60;;;;;;;16.62;100.00;101521.53;6273201;28;20056;-75
2021/07/10 08:06:31;;;;;;;29.75;16.00;;;;;;;16.76;99.66;101528.63;6274184;28;20053;-75
2021/07/10 08:09:33;;;;;;;26.90;16.73;;;;;;;17.13;95.34;101530.50;6273422;28;20045;-75
2021/07/10 08:12:36;;;;;;;26.15;16.67;;;;;;;16.97;94.73;101525.38;6273655;28;20056;-75
2021/07/10 08:15:37;;;;;;;21.90;14.48;;;;;;;16.88;96.49;101520.69;6273699;28;20053;-75
2021/07/10 08:18:39;;;;;;;28.38;16.90;;;;;;;16.89;96.76;101516.22;6273436;28;20045;-74
2021/07/10 08:21:41;;;;;;;27.92;16.85;;;;;;;17.01;96.78;101517.22;6273688;28;20049;-75
2021/07/10 08:24:42;;;;;;;26.95;18.23;;;;;;;17.22;95.94;101521.06;6262961;28;20056;-75
2021/07/10 08:27:45;;;;;;;29.77;17.10;;;;;;;17.31;92.94;101516.94;6272962;28;20423;-75
2021/07/10 08:30:47;;;;;;;25.35;16.25;;;;;;;17.33;93.67;101521.16;6273055;28;20052;-75
2021/07/10 08:33:48;;;;;;;25.70;16.35;;;;;;;17.59;91.44;101522.00;6273291;28;20048;-75
2021/07/10 08:36:50;;;;;;;27.38;16.65;;;;;;;17.43;92.77;101522.22;6273057;28;20049;-75
2021/07/10 08:39:51;;;;;;;25.55;16.55;;;;;;;17.61;91.69;101517.41;6273073;28;20037;-75
2021/07/10 08:42:54;;;;;;;27.42;16.92;;;;;;;17.62;90.95;101526.22;6273160;28;20515;-75
2021/07/10 08:45:56;;;;;;;26.00;16.70;;;;;;;17.87;89.01;101518.25;6272477;28;20045;-75
2021/07/10 08:48:58;;;;;;;26.75;16.70;;;;;;;17.66;89.69;101522.41;6273038;28;20048;-74
2021/07/10 08:52:00;;;;;;;26.85;16.80;;;;;;;17.78;89.99;101524.25;6272766;28;20052;-74
2021/07/10 08:55:02;;;;;;;22.85;15.32;;;;;;;17.69;92.10;101523.03;6272672;28;20048;-75
2021/07/10 08:58:05;;;;;;;27.35;16.83;;;;;;;17.74;95.07;101517.44;6272245;28;20499;-75
2021/07/10 09:01:08;;;;;;;24.20;15.80;;;;;;;17.77;92.05;101522.53;6272736;28;20059;-75
2021/07/10 09:04:10;;;;;;;27.20;16.65;;;;;;;17.83;92.36;101524.75;6272430;28;20056;-75
2021/07/10 09:07:11;;;;;;;25.13;15.98;;;;;;;17.93;90.73;101517.81;6272206;28;20053;-74
2021/07/10 09:10:12;;;;;;;28.63;17.27;;;;;;;18.05;91.06;101516.09;6272370;28;20048;-78
2021/07/10 09:13:17;;;;;;;25.58;14.35;;;;;;;18.13;91.60;101524.38;6272581;28;20056;-76
2021/07/10 09:16:23;;;;;;;21.35;13.90;;;;;;;18.18;92.67;101522.22;6272224;28;20052;-77
2021/07/10 09:19:25;;;;;;;25.95;15.50;;;;;;;18.17;91.90;101522.34;6271564;28;20049;-74
2021/07/10 09:22:28;;;;;;;25.25;15.32;;;;;;;18.23;92.40;101513.91;6271471;28;20531;-74
2021/07/10 09:25:32;;;;;;;28.65;16.77;;;;;;;18.25;92.00;101523.44;6271605;28;20244;-75
2021/07/10 09:28:35;;;;;;;26.08;17.23;;;;;;;18.29;90.95;101513.44;6271838;28;20067;-75
2021/07/10 09:31:39;;;;;;;27.90;15.30;;;;;;;18.27;88.22;101514.53;6271750;28;20044;-76
2021/07/10 09:34:43;;;;;;;22.83;15.57;;;;;;;18.43;88.55;101504.44;6271572;28;20057;-76
2021/07/10 09:37:53;;;;;;;21.23;13.95;;;;;;;18.30;90.12;101507.16;6271368;28;20056;-75
2021/07/10 09:41:00;;;;;;;23.48;15.38;;;;;;;18.64;88.15;101512.63;6271796;28;20045;-76
2021/07/10 09:44:07;;;;;;;21.95;14.77;;;;;;;18.78;86.54;101507.16;6268605;28;20052;-76
2021/07/10 09:47:09;;;;;;;26.70;16.70;;;;;;;18.97;84.08;101496.78;6271506;28;20052;-76
2021/07/10 09:50:17;;;;;;;23.52;14.95;;;;;;;18.64;87.26;101499.31;6271217;28;20049;-76
2021/07/10 09:53:23;;;;;;;21.88;14.98;;;;;;;18.48;91.76;101503.13;6267731;28;20432;-76
2021/07/10 09:56:24;;;;;;;22.95;16.20;;;;;;;18.57;87.85;101506.91;6257608;28;20055;-76
2021/07/10 09:59:27;;;;;;;23.02;14.30;;;;;;;18.45;87.48;101494.53;6269936;28;20045;-76
2021/07/10 10:02:32;;;;;;;22.75;13.70;;;;;;;18.50;86.93;101495.88;6271314;28;20075;-76
2021/07/10 10:05:35;;;;;;;24.35;14.18;;;;;;;18.49;89.35;101490.69;6271254;28;20053;-75
2021/07/10 10:08:43;;;;;;;22.65;14.70;;;;;;;18.55;88.53;101490.22;6271220;28;20049;-76
2021/07/10 10:11:50;;;;;;;19.98;15.48;;;;;;;18.59;87.46;101486.38;6271597;28;20049;-76
2021/07/10 10:14:56;;;;;;;28.67;19.83;;;;;;;18.63;88.50;101484.31;6271223;28;20060;-76
2021/07/10 10:17:58;;;;;;;26.67;15.57;;;;;;;18.63;89.50;101484.31;6271272;28;20049;-76
2021/07/10 10:20:59;;;;;;;24.38;14.20;;;;;;;18.51;86.39;101486.09;6271042;28;20515;-76
2021/07/10 10:24:01;;;;;;;20.42;13.88;;;;;;;18.43;87.99;101475.16;6270849;28;20049;-76
2021/07/10 10:27:03;;;;;;;23.25;13.95;;;;;;;18.33;89.62;101464.34;6271087;28;20049;-76
2021/07/10 10:30:07;;;;;;;23.08;15.00;;;;;;;18.43;90.83;101477.81;6270729;28;20045;-76
2021/07/10 10:33:11;;;;;;;20.50;13.63;;;;;;;18.50;89.70;101466.59;6273837;28;20519;-76
2021/07/10 10:36:13;;;;;;;22.42;14.70;;;;;;;18.52;90.32;101466.47;6275539;28;20045;-76
2021/07/10 10:39:17;;;;;;;18.92;13.15;;;;;;;18.89;87.38;101461.88;6276164;28;20056;-75
2021/07/10 10:42:21;;;;;;;20.65;12.15;;;;;;;19.05;85.28;101464.22;6275872;28;20045;-76
2021/07/10 10:45:27;;;;;;;38.88;18.05;;;;;;;19.17;81.70;101449.97;6275926;28;20068;-76
2021/07/10 10:48:36;;;;;;;35.40;14.05;;;;;;;19.35;79.55;101442.34;6275762;28;20527;-77
2021/07/10 10:51:39;;;;;;;18.63;12.15;;;;;;;19.51;81.21;101442.78;6275728;28;20056;-77
2021/07/10 10:54:46;;;;;;;16.50;12.13;;;;;;;19.79;78.89;101440.59;6275526;28;20060;-76
2021/07/10 10:57:50;;;;;;;21.40;13.07;;;;;;;19.90;79.10;101431.75;6275600;28;20044;-76
2021/07/10 11:01:00;;;;;;;17.08;12.13;;;;;;;19.72;79.59;101434.94;6275308;28;20515;-77
2021/07/10 11:04:01;;;;;;;19.48;11.63;;;;;;;19.93;76.90;101429.66;6275668;28;20061;-77
2021/07/10 11:07:23;;;;;;;15.93;11.95;;;;;;;20.21;75.24;101427.38;6274925;28;20488;-76
2021/07/10 11:10:26;;;;;;;17.08;10.65;;;;;;;20.15;76.26;101420.72;6275295;28;20053;-76
2021/07/10 11:13:29;;;;;;;17.40;10.27;;;;;;;20.54;82.09;101421.09;6274888;28;20049;-77
2021/07/10 11:16:32;;;;;;;16.08;9.95;;;;;;;20.81;75.71;101417.03;6275041;28;20053;-75
2021/07/10 11:19:55;;;;;;;19.38;12.00;;;;;;;20.95;74.37;101414.03;6274782;28;20041;-75
2021/07/10 11:23:00;;;;;;;15.52;9.77;;;;;;;20.68;72.57;101414.56;6275006;28;20048;-75
2021/07/10 11:26:06;;;;;;;16.75;10.32;;;;;;;20.43;71.37;101407.75;6274574;28;20130;-77
2021/07/10 11:29:18;;;;;;;16.13;10.63;;;;;;;20.10;74.79;101408.75;6274903;28;20126;-74
2021/07/10 11:32:26;;;;;;;12.43;8.95;;;;;;;19.91;75.00;101412.94;6274813;28;20053;-74
2021/07/10 11:35:35;;;;;;;15.15;8.23;;;;;;;19.73;78.72;101398.44;6274697;28;20053;-74
2021/07/10 11:38:41;;;;;;;15.05;9.38;;;;;;;19.65;77.74;101407.06;6274356;28;20127;-75
2021/07/10 11:41:42;;;;;;;15.10;9.52;;;;;;;19.58;78.38;101407.66;6274744;28;20056;-74
2021/07/10 11:44:44;;;;;;;14.52;9.43;;;;;;;19.58;79.55;101402.34;6273739;28;20052;-75
2021/07/10 11:47:50;;;;;;;15.20;9.05;;;;;;;19.48;82.27;101405.75;6274238;28;20053;-75
2021/07/10 11:51:11;;;;;;;17.75;11.70;;;;;;;19.48;83.91;101407.53;6274232;28;20049;-75
2021/07/10 11:54:12;;;;;;;21.08;12.73;;;;;;;19.52;82.56;101411.66;6273946;28;20060;-75
2021/07/10 11:57:15;;;;;;;15.40;10.38;;;;;;;19.75;84.01;101407.16;6273934;28;20416;-75
2021/07/10 12:00:17;;;;;;;16.27;10.50;;;;;;;19.76;78.96;101398.19;6273934;28;20070;-74
2021/07/10 12:03:21;;;;;;;15.05;11.40;;;;;;;19.85;80.33;101408.13;6273780;28;20051;-76
2021/07/10 12:06:23;;;;;;;15.60;11.63;;;;;;;20.17;80.03;101397.44;6273630;28;20510;-77
2021/07/10 12:09:24;;;;;;;19.58;11.93;;;;;;;20.13;77.29;101393.34;6273109;28;20045;-77
2021/07/10 12:12:25;;;;;;;16.30;10.98;;;;;;;19.86;80.38;101387.63;6273918;28;20056;-77
2021/07/10 12:15:30;;;;;;;17.40;11.75;;;;;;;19.88;81.24;101393.66;6273546;28;20048;-77
2021/07/10 12:18:35;;;;;;;18.00;11.13;;;;;;;19.83;81.07;101394.03;6273892;28;20496;-77
2021/07/10 12:21:36;;;;;;;16.17;11.02;;;;;;;19.69;79.51;101387.16;6273492;28;20056;-75
2021/07/10 12:24:38;;;;;;;19.15;11.63;;;;;;;19.81;81.36;101397.81;6273683;28;20059;-75
2021/07/10 12:27:39;;;;;;;19.88;11.40;;;;;;;19.63;82.61;101382.34;6273207;28;20045;-75
2021/07/10 12:30:45;;;;;;;14.45;11.02;;;;;;;19.65;83.15;101376.88;6273019;28;20492;-75
2021/07/10 12:33:53;;;;;;;15.90;10.52;;;;;;;19.55;84.35;101378.56;6273231;28;20411;-75
2021/07/10 12:36:56;;;;;;;13.53;9.53;;;;;;;19.52;81.31;101377.84;6273015;28;20048;-76
2021/07/10 12:40:05;;;;;;;17.63;11.50;;;;;;;19.61;78.86;101388.75;6273130;28;20733;-77
2021/07/10 12:43:07;;;;;;;16.77;11.70;;;;;;;19.55;80.86;101387.41;6271855;28;20057;-75
2021/07/10 12:46:08;;;;;;;14.82;11.20;;;;;;;19.50;79.98;101379.78;6271459;28;20052;-75
2021/07/10 12:49:11;;;;;;;16.55;11.65;;;;;;;19.44;83.68;101388.28;6272123;28;20444;-75
2021/07/10 12:52:23;;;;;;;18.75;10.98;;;;;;;19.45;84.80;101373.97;6271911;28;20504;-74
2021/07/10 12:55:27;;;;;;;16.10;11.05;;;;;;;19.51;86.12;101375.31;6267515;28;20511;-74
2021/07/10 12:58:38;;;;;;;20.95;13.00;;;;;;;19.54;83.13;101377.72;6272517;28;20504;-75
2021/07/10 13:01:41;;;;;;;14.82;11.02;;;;;;;19.59;83.37;101372.88;6272415;28;20052;-74
2021/07/10 13:04:44;;;;;;;16.30;10.98;;;;;;;19.71;80.19;101382.56;6272621;28;20400;-76
2021/07/10 13:07:47;;;;;;;15.30;9.98;;;;;;;19.82;82.28;101379.00;6272414;28;20044;-74
2021/07/10 13:10:50;;;;;;;13.23;9.57;;;;;;;19.95;81.07;101363.69;6272614;28;20049;-76
2021/07/10 13:13:56;;;;;;;14.82;9.75;;;;;;;20.04;79.72;101363.91;6271867;28;20052;-73
2021/07/10 13:17:11;;;;;;;17.08;10.98;;;;;;;20.03;81.62;101363.06;6272079;28;20053;-75
2021/07/10 13:20:29;;;;;;;16.02;10.43;;;;;;;20.09;77.76;101361.69;6261549;28;20072;-76
2021/07/10 13:23:34;;;;;;;15.27;10.50;;;;;;;20.21;77.38;101357.97;6269160;28;20438;-75
2021/07/10 13:26:37;;;;;;;11.50;8.32;;;;;;;20.11;78.87;101357.06;6271696;28;20044;-76
2021/07/10 13:29:40;;;;;;;13.57;8.93;;;;;;;20.18;78.03;101353.75;6271541;28;20071;-76
2021/07/10 13:32:52;;;;;;;13.98;8.70;;;;;;;20.55;77.17;101361.34;6271823;28;20068;-75
2021/07/10 13:36:05;;;;;;;13.65;9.45;;;;;;;20.78;74.68;101357.53;6271815;28;20057;-76
2021/07/10 13:39:13;;;;;;;12.13;7.85;;;;;;;20.54;76.71;101356.16;6271780;28;20060;-74
2021/07/10 13:42:20;;;;;;;16.23;8.82;;;;;;;20.57;73.84;101358.53;6271699;28;20073;-76
2021/07/10 13:45:21;;;;;;;13.38;8.30;;;;;;;20.48;75.40;101354.81;6271638;28;20512;-75